地図

経路データ

SID SEASON NUMBER BASIN SUBBASIN NAME ISO_TIME NATURE LAT LON WMO_WIND WMO_PRES WMO_AGENCY TRACK_TYPE DIST2LAND LANDFALL IFLAG USA_AGENCY USA_ATCF_ID USA_LAT USA_LON USA_RECORD USA_STATUS USA_WIND USA_PRES USA_SSHS USA_R34_NE USA_R34_SE USA_R34_SW USA_R34_NW USA_R50_NE USA_R50_SE USA_R50_SW USA_R50_NW USA_R64_NE USA_R64_SE USA_R64_SW USA_R64_NW USA_POCI USA_ROCI USA_RMW USA_EYE TOKYO_LAT TOKYO_LON TOKYO_GRADE TOKYO_WIND TOKYO_PRES TOKYO_R50_DIR TOKYO_R50_LONG TOKYO_R50_SHORT TOKYO_R30_DIR TOKYO_R30_LONG TOKYO_R30_SHORT TOKYO_LAND CMA_LAT CMA_LON CMA_CAT CMA_WIND CMA_PRES HKO_LAT HKO_LON HKO_CAT HKO_WIND HKO_PRES NEWDELHI_LAT NEWDELHI_LON NEWDELHI_GRADE NEWDELHI_WIND NEWDELHI_PRES NEWDELHI_CI NEWDELHI_DP NEWDELHI_POCI REUNION_LAT REUNION_LON REUNION_TYPE REUNION_WIND REUNION_PRES REUNION_TNUM REUNION_CI REUNION_RMW REUNION_R34_NE REUNION_R34_SE REUNION_R34_SW REUNION_R34_NW REUNION_R50_NE REUNION_R50_SE REUNION_R50_SW REUNION_R50_NW REUNION_R64_NE REUNION_R64_SE REUNION_R64_SW REUNION_R64_NW BOM_LAT BOM_LON BOM_TYPE BOM_WIND BOM_PRES BOM_TNUM BOM_CI BOM_RMW BOM_R34_NE BOM_R34_SE BOM_R34_SW BOM_R34_NW BOM_R50_NE BOM_R50_SE BOM_R50_SW BOM_R50_NW BOM_R64_NE BOM_R64_SE BOM_R64_SW BOM_R64_NW BOM_ROCI BOM_POCI BOM_EYE BOM_POS_METHOD BOM_PRES_METHOD NADI_LAT NADI_LON NADI_CAT NADI_WIND NADI_PRES WELLINGTON_LAT WELLINGTON_LON WELLINGTON_WIND WELLINGTON_PRES DS824_LAT DS824_LON DS824_STAGE DS824_WIND DS824_PRES TD9636_LAT TD9636_LON TD9636_STAGE TD9636_WIND TD9636_PRES TD9635_LAT TD9635_LON TD9635_WIND TD9635_PRES TD9635_ROCI NEUMANN_LAT NEUMANN_LON NEUMANN_CLASS NEUMANN_WIND NEUMANN_PRES MLC_LAT MLC_LON MLC_CLASS MLC_WIND MLC_PRES USA_GUST BOM_GUST BOM_GUST_PER REUNION_GUST REUNION_GUST_PER USA_SEAHGT USA_SEARAD_NE USA_SEARAD_SE USA_SEARAD_SW USA_SEARAD_NW STORM_SPEED STORM_DIR
1990283N15129 1990 101 WP MM JEANA 1990-10-09 12:00:00 NR 14.9000 129.000 main 484 443 O_____________ jtwc_wp WP241990 14.9000 129.000 10 -1 10 270
1990283N15129 1990 101 WP MM JEANA 1990-10-09 15:00:00 NR 14.8977 128.507 main 443 403 P_____________ WP241990 14.8977 128.507 10 -1 10 270
1990283N15129 1990 101 WP MM JEANA 1990-10-09 18:00:00 NR 14.9000 128.000 main 403 352 O_____________ jtwc_wp WP241990 14.9000 128.000 10 -1 10 271
1990283N15129 1990 101 WP MM JEANA 1990-10-09 21:00:00 NR 14.9074 127.465 main 352 291 P_____________ WP241990 14.9074 127.465 12 -1 11 270
1990283N15129 1990 101 WP MM JEANA 1990-10-10 00:00:00 NR 14.9000 126.900 main 291 242 O_____________ jtwc_wp WP241990 14.9000 126.900 15 -1 11 268
1990283N15129 1990 101 WP MM JEANA 1990-10-10 03:00:00 NR 14.8647 126.330 main 233 172 P_____________ WP241990 14.8647 126.330 17 -1 12 265
1990283N15129 1990 101 WP MM JEANA 1990-10-10 06:00:00 NR 14.8000 125.700 main 172 108 O_____________ jtwc_wp WP241990 14.8000 125.700 20 -1 13 263
1990283N15129 1990 101 WP MM JEANA 1990-10-10 09:00:00 NR 14.7150 124.973 main 108 67 P_____________ WP241990 14.7150 124.973 20 -1 15 262
1990283N15129 1990 101 WP MM JEANA 1990-10-10 12:00:00 NR 14.6000 124.200 main 67 59 O_____________ jtwc_wp WP241990 14.6000 124.200 20 -1 15 260
1990283N15129 1990 101 WP MM JEANA 1990-10-10 15:00:00 NR 14.4573 123.450 main 59 11 P_____________ WP241990 14.4573 123.450 17 -1 15 258
1990283N15129 1990 101 WP MM JEANA 1990-10-10 18:00:00 NR 14.3000 122.700 main 11 0 O_____________ jtwc_wp WP241990 14.3000 122.700 15 -1 15 258
1990283N15129 1990 101 WP MM JEANA 1990-10-10 21:00:00 NR 14.1573 121.950 main 24 0 P_____________ WP241990 14.1573 121.950 15 -1 15 258
1990283N15129 1990 101 WP MM JEANA 1990-10-11 00:00:00 NR 14.0000 121.200 main 0 0 O_____________ jtwc_wp WP241990 14.0000 121.200 15 -1 15 256
1990283N15129 1990 101 WP MM JEANA 1990-10-11 03:00:00 NR 13.7998 120.442 main 21 21 P_____________ WP241990 13.7998 120.442 15 -1 15 255
1990283N15129 1990 101 WP MM JEANA 1990-10-11 06:00:00 NR 13.6000 119.700 main 68 68 O_____________ jtwc_wp WP241990 13.6000 119.700 15 -1 15 256
1990283N15129 1990 101 WP MM JEANA 1990-10-11 09:00:00 NR 13.4349 118.978 main 140 140 P_____________ WP241990 13.4349 118.978 15 -1 14 258
1990283N15129 1990 101 WP MM JEANA 1990-10-11 12:00:00 NR 13.3000 118.300 main 216 216 O_____________ jtwc_wp WP241990 13.3000 118.300 15 -1 13 259
1990283N15129 1990 101 WP MM JEANA 1990-10-11 15:00:00 NR 13.1848 117.685 main 282 282 P_____________ WP241990 13.1848 117.685 15 -1 12 260
1990283N15129 1990 101 WP MM JEANA 1990-10-11 18:00:00 NR 13.1000 117.100 main 328 328 O_____________ jtwc_wp WP241990 13.1000 117.100 15 -1 12 263
1990283N15129 1990 101 WP MM JEANA 1990-10-11 21:00:00 NR 13.0349 116.500 main 374 374 P_____________ WP241990 13.0349 116.500 17 -1 12 265
1990283N15129 1990 101 WP MM JEANA 1990-10-12 00:00:00 NR 13.0000 115.900 main 430 430 O_____________ jtwc_wp WP241990 13.0000 115.900 20 -1 12 268
1990283N15129 1990 101 WP MM JEANA 1990-10-12 03:00:00 NR 12.9923 115.308 main 489 489 P_____________ WP241990 12.9923 115.308 20 -1 11 278
1990283N15129 1990 101 WP MM JEANA 1990-10-12 06:00:00 TS 13.1500 114.733 main 558 499 O_OO__________ jtwc_wp WP241990 13.0000 114.700 20 -1 13.5000 115.000 1 29 1000 13.4000 114.600 TD 25 1005 13 281
1990283N15129 1990 101 WP MM JEANA 1990-10-12 09:00:00 TS 13.2316 114.018 main 488 424 P_PP__________ WP241990 13.0002 114.005 22 -1 13.5000 114.287 1 29 1000 13.4258 113.773 TD 25 1005 14 275
1990283N15129 1990 101 WP MM JEANA 1990-10-12 12:00:00 TS 13.2700 113.340 main 414 360 O_OO__________ jtwc_wp WP241990 13.0000 113.400 25 -1 13.5000 113.500 1 29 1000 13.4000 113.100 TD 25 1005 12 271
1990283N15129 1990 101 WP MM JEANA 1990-10-12 15:00:00 TS 13.2624 112.792 main 360 316 P_PP__________ WP241990 12.9997 113.055 25 -1 13.5004 112.638 1 29 1000 13.2871 112.683 TD 27 1002 9 266
1990283N15129 1990 101 WP MM JEANA 1990-10-12 18:00:00 TS 13.2000 112.400 main 316 293 O_OO__________ jtwc_wp WP241990 13.0000 112.800 25 -1 13.5000 112.000 1 29 1000 13.1000 112.400 TD 30 1000 6 256
1990283N15129 1990 101 WP MM JEANA 1990-10-12 21:00:00 TS 13.1165 112.171 main 293 271 P_PP__________ WP241990 13.0000 112.450 27 -1 13.4995 111.963 1 29 1000 12.8499 112.100 TD 30 1000 5 248
1990283N15129 1990 101 WP MM JEANA 1990-10-13 00:00:00 TS 13.0333 111.967 main 271 227 O_OO__________ jtwc_wp WP241990 13.0000 112.100 30 -1 13.5000 112.000 1 29 1000 12.6000 111.800 TD 30 1000 6 256
1990283N15129 1990 101 WP MM JEANA 1990-10-13 03:00:00 TS 12.9709 111.593 main 227 184 P_PP__________ WP241990 12.9999 111.800 30 -1 13.5378 111.560 1 29 1000 12.3751 111.420 TD 30 1000 8 262
1990283N15129 1990 101 WP MM JEANA 1990-10-13 06:00:00 TS 12.9333 111.200 main 184 151 O_OO__________ jtwc_wp WP241990 13.0000 111.500 30 -1 13.5000 111.000 1 29 1000 12.3000 111.100 TD 30 1000 7 266
1990283N15129 1990 101 WP MM JEANA 1990-10-13 09:00:00 TS 12.9208 110.867 main 151 119 P_PP__________ WP241990 12.9925 111.157 30 -1 13.2500 110.525 1 26 1001 12.5199 110.918 TD 27 1000 6 270
1990283N15129 1990 101 WP MM JEANA 1990-10-13 12:00:00 TS 12.9333 110.633 main 119 119 O_OO__________ jtwc_wp WP241990 13.0000 110.800 30 -1 13.0000 110.200 1 23 1002 12.8000 110.900 TD 25 1000 3 282
1990283N15129 1990 101 WP MM JEANA 1990-10-13 15:00:00 TS 12.9816 110.578 main 119 109 P_PP__________ WP241990 13.0350 110.450 32 -1 12.9998 110.193 1 23 1002 12.9101 111.092 TD 25 1000 1 304
1990283N15129 1990 101 WP MM JEANA 1990-10-13 18:00:00 TS 13.0000 110.533 main 109 97 O_OO__________ jtwc_wp WP241990 13.1000 110.100 35 0 13.0000 110.200 1 23 1002 12.9000 111.300 TD 25 1000 2 248
1990283N15129 1990 101 WP MM JEANA 1990-10-13 21:00:00 TS 12.8948 110.356 main 97 66 P_PP__________ WP241990 13.1850 109.742 35 0 12.7872 109.963 1 23 1002 12.7123 111.362 TD 27 1000 5 248
1990283N15129 1990 101 WP MM JEANA 1990-10-14 00:00:00 TS 12.8000 110.033 main 55 15 O_OO__________ jtwc_wp WP241990 13.3000 109.400 35 0 12.5000 109.500 1 23 1002 12.6000 111.200 TD 30 1000 8 266
1990283N15129 1990 101 WP MM JEANA 1990-10-14 03:00:00 TS 12.8343 109.537 main 10 0 P_PP__________ WP241990 13.4424 109.100 32 -1 12.2130 108.772 1 23 1002 12.8476 110.740 TD 30 1000 11 275
1990283N15129 1990 101 WP MM JEANA 1990-10-14 06:00:00 TS 12.9091 108.864 main 0 0 O_OO__________ jtwc_wp WP241990 13.6000 108.800 30 -1 12.0000 108.000 1 23 1002 13.2000 110.100 TD 30 1000 13 275
1990283N15129 1990 101 WP MM JEANA 1990-10-14 09:00:00 TS 12.9464 108.257 main 0 0 P_PP__________ WP241990 13.7575 108.458 30 -1 11.8872 107.462 1 21 1003 13.4427 109.445 TD 30 1000 11 283
1990283N15129 1990 101 WP MM JEANA 1990-10-14 12:00:00 TS 13.1500 107.775 main 0 0 O_OO__________ jtwc_wp WP241990 13.9000 108.100 30 -1 12.0000 107.000 0 19 1004 13.6000 108.800 TD 30 1000 10 301
1990283N15129 1990 101 WP MM JEANA 1990-10-14 15:00:00 TS 13.4759 107.338 main 0 0 P_P___________ WP241990 14.0074 107.750 27 -1 12.4128 106.513 0 19 1004 TD 10 319
1990283N15129 1990 101 WP MM JEANA 1990-10-14 18:00:00 TS 13.8800 107.120 main 0 0 O_O___________ jtwc_wp WP241990 14.1000 107.400 25 -1 13.0000 106.000 0 19 1004 8 339
1990283N15129 1990 101 WP MM JEANA 1990-10-14 21:00:00 NR 14.2074 107.050 main 0 0 P_____________ WP241990 14.2074 107.050 25 -1 0 6 316
1990283N15129 1990 101 WP MM JEANA 1990-10-15 00:00:00 NR 14.3000 106.700 main 0 0 O_____________ jtwc_wp WP241990 14.3000 106.700 25 -1 7 283
1990283N15129 1990 101 WP MM JEANA 1990-10-15 03:00:00 NR 14.3601 106.350 main 0 0 P_____________ WP241990 14.3601 106.350 22 -1 7 278
1990283N15129 1990 101 WP MM JEANA 1990-10-15 06:00:00 NR 14.4000 106.000 main 0 O_____________ jtwc_wp WP241990 14.4000 106.000 20 -1 7 277

デジタル台風データ・検索

IBTrACS Databaseについて

本データベースは、米国NOAAが公開する1842年以降の世界の熱帯低気圧のベストトラックデータアーカイブInternational Best Track Archive for Climate Stewardship (IBTrACS)を、ウェブで閲覧しやすい形式に変換したものです。

最終更新日:2021-11-26